sensor_id;sensor_type;location;lat;lon;timestamp;pressure;altitude;pressure_sealevel;temperature;humidity
6680;BME280;3376;42.664;23.346;2023-02-02T00:00:49;94610.66;;;5.93;60.20
6680;BME280;3376;42.664;23.346;2023-02-02T00:03:17;94610.22;;;5.97;59.39
6680;BME280;3376;42.664;23.346;2023-02-02T00:05:45;94603.72;;;5.93;59.33
6680;BME280;3376;42.664;23.346;2023-02-02T00:08:12;94610.00;;;5.91;59.27
6680;BME280;3376;42.664;23.346;2023-02-02T00:10:39;94618.22;;;5.94;61.78
6680;BME280;3376;42.664;23.346;2023-02-02T00:13:05;94609.25;;;5.98;59.85
6680;BME280;3376;42.664;23.346;2023-02-02T00:15:32;94613.09;;;5.94;59.92
6680;BME280;3376;42.664;23.346;2023-02-02T00:17:59;94488.81;;;5.24;59.49
6680;BME280;3376;42.664;23.346;2023-02-02T00:20:27;94613.09;;;5.94;58.89
6680;BME280;3376;42.664;23.346;2023-02-02T00:22:54;94602.44;;;5.89;58.90
6680;BME280;3376;42.664;23.346;2023-02-02T00:25:22;94455.47;;;4.97;59.00
6680;BME280;3376;42.664;23.346;2023-02-02T00:27:48;94607.13;;;5.94;60.19
6680;BME280;3376;42.664;23.346;2023-02-02T00:30:15;94610.50;;;5.94;59.82
6680;BME280;3376;42.664;23.346;2023-02-02T00:32:42;94616.81;;;6.00;59.73
6680;BME280;3376;42.664;23.346;2023-02-02T00:35:13;94407.31;;;4.54;60.11
6680;BME280;3376;42.664;23.346;2023-02-02T00:37:41;94608.13;;;5.83;60.17
6680;BME280;3376;42.664;23.346;2023-02-02T00:40:09;94610.69;;;5.83;59.46
6680;BME280;3376;42.664;23.346;2023-02-02T00:42:36;94623.50;;;5.93;60.63
6680;BME280;3376;42.664;23.346;2023-02-02T00:45:03;94627.03;;;5.92;60.20
6680;BME280;3376;42.664;23.346;2023-02-02T00:47:43;94627.31;;;5.79;59.62
6680;BME280;3376;42.664;23.346;2023-02-02T00:50:11;94627.88;;;5.83;61.29
6680;BME280;3376;42.664;23.346;2023-02-02T00:52:38;94628.34;;;5.69;61.01
6680;BME280;3376;42.664;23.346;2023-02-02T00:55:08;94628.47;;;5.67;61.48
6680;BME280;3376;42.664;23.346;2023-02-02T00:57:35;94628.22;;;5.70;62.99
6680;BME280;3376;42.664;23.346;2023-02-02T01:00:04;94576.19;;;5.32;63.88
6680;BME280;3376;42.664;23.346;2023-02-02T01:02:32;94624.38;;;5.47;65.46
6680;BME280;3376;42.664;23.346;2023-02-02T01:04:59;94615.84;;;5.56;66.21
6680;BME280;3376;42.664;23.346;2023-02-02T01:07:26;94604.06;;;5.54;66.11
6680;BME280;3376;42.664;23.346;2023-02-02T01:09:52;94602.84;;;5.58;65.93
6680;BME280;3376;42.664;23.346;2023-02-02T01:12:20;94603.00;;;5.56;66.84
6680;BME280;3376;42.664;23.346;2023-02-02T01:14:47;94601.31;;;5.65;67.26
6680;BME280;3376;42.664;23.346;2023-02-02T01:17:14;94594.69;;;5.62;68.38
6680;BME280;3376;42.664;23.346;2023-02-02T01:19:41;94585.94;;;5.55;70.17
6680;BME280;3376;42.664;23.346;2023-02-02T01:22:08;94581.56;;;5.38;70.03
6680;BME280;3376;42.664;23.346;2023-02-02T01:24:35;94592.63;;;5.48;70.92
6680;BME280;3376;42.664;23.346;2023-02-02T01:27:02;94577.69;;;5.34;70.68
6680;BME280;3376;42.664;23.346;2023-02-02T01:29:30;94588.50;;;5.28;71.00
6680;BME280;3376;42.664;23.346;2023-02-02T01:31:57;94588.38;;;5.30;73.55
6680;BME280;3376;42.664;23.346;2023-02-02T01:34:23;94580.63;;;5.39;71.40
6680;BME280;3376;42.664;23.346;2023-02-02T01:36:50;94580.63;;;5.39;70.38
6680;BME280;3376;42.664;23.346;2023-02-02T01:39:17;94579.41;;;5.43;70.06
6680;BME280;3376;42.664;23.346;2023-02-02T01:41:44;94573.00;;;5.47;68.46
6680;BME280;3376;42.664;23.346;2023-02-02T01:47:17;94569.75;;;5.28;70.29
6680;BME280;3376;42.664;23.346;2023-02-02T01:49:44;94567.41;;;5.34;69.26
6680;BME280;3376;42.664;23.346;2023-02-02T01:52:13;94556.63;;;5.31;69.83
6680;BME280;3376;42.664;23.346;2023-02-02T01:54:50;94556.00;;;5.19;70.49
6680;BME280;3376;42.664;23.346;2023-02-02T01:57:22;94563.44;;;5.13;70.53
6680;BME280;3376;42.664;23.346;2023-02-02T01:59:51;94555.56;;;4.97;72.69
6680;BME280;3376;42.664;23.346;2023-02-02T02:02:21;94551.22;;;4.97;73.56
6680;BME280;3376;42.664;23.346;2023-02-02T02:04:49;94528.47;;;4.75;72.51
6680;BME280;3376;42.664;23.346;2023-02-02T02:07:16;94541.97;;;4.77;73.37
6680;BME280;3376;42.664;23.346;2023-02-02T02:09:42;94540.06;;;4.79;73.17
6680;BME280;3376;42.664;23.346;2023-02-02T02:12:10;94537.97;;;4.65;74.53
6680;BME280;3376;42.664;23.346;2023-02-02T02:14:40;94550.91;;;4.73;73.80
6680;BME280;3376;42.664;23.346;2023-02-02T02:17:40;94541.53;;;4.45;75.18
6680;BME280;3376;42.664;23.346;2023-02-02T02:20:53;94560.69;;;4.41;76.65
6680;BME280;3376;42.664;23.346;2023-02-02T02:24:22;94561.09;;;4.27;77.54
6680;BME280;3376;42.664;23.346;2023-02-02T02:27:52;94531.28;;;4.26;77.81
6680;BME280;3376;42.664;23.346;2023-02-02T02:30:41;94557.88;;;4.25;76.61
6680;BME280;3376;42.664;23.346;2023-02-02T02:33:14;94557.72;;;4.36;76.68
6680;BME280;3376;42.664;23.346;2023-02-02T02:35:54;94552.88;;;4.33;75.68
6680;BME280;3376;42.664;23.346;2023-02-02T02:38:31;94548.53;;;4.43;76.64
6680;BME280;3376;42.664;23.346;2023-02-02T02:41:02;94543.03;;;4.38;76.86
6680;BME280;3376;42.664;23.346;2023-02-02T02:43:33;94550.44;;;4.50;75.26
6680;BME280;3376;42.664;23.346;2023-02-02T02:46:02;94560.16;;;4.47;76.98
6680;BME280;3376;42.664;23.346;2023-02-02T02:48:31;94556.38;;;4.41;75.34
6680;BME280;3376;42.664;23.346;2023-02-02T02:51:05;94545.84;;;4.44;74.92
6680;BME280;3376;42.664;23.346;2023-02-02T02:53:32;94546.38;;;4.48;72.67
6680;BME280;3376;42.664;23.346;2023-02-02T02:56:05;94556.19;;;4.62;72.80
6680;BME280;3376;42.664;23.346;2023-02-02T02:58:44;94548.00;;;4.49;74.43
6680;BME280;3376;42.664;23.346;2023-02-02T03:01:20;94569.16;;;4.51;75.59
6680;BME280;3376;42.664;23.346;2023-02-02T03:04:01;94562.03;;;4.45;76.56
6680;BME280;3376;42.664;23.346;2023-02-02T03:06:37;94551.25;;;4.41;76.65
6680;BME280;3376;42.664;23.346;2023-02-02T03:09:10;94490.72;;;4.02;76.36
6680;BME280;3376;42.664;23.346;2023-02-02T03:11:38;94552.63;;;4.26;77.13
6680;BME280;3376;42.664;23.346;2023-02-02T03:14:04;94549.91;;;4.28;76.85
6680;BME280;3376;42.664;23.346;2023-02-02T03:16:34;94520.53;;;4.13;76.25
6680;BME280;3376;42.664;23.346;2023-02-02T03:19:03;94546.25;;;4.30;77.14
6680;BME280;3376;42.664;23.346;2023-02-02T03:21:30;94529.94;;;4.31;76.27
6680;BME280;3376;42.664;23.346;2023-02-02T03:23:57;94543.69;;;4.30;74.83
6680;BME280;3376;42.664;23.346;2023-02-02T03:26:24;94540.72;;;4.25;76.04
6680;BME280;3376;42.664;23.346;2023-02-02T03:28:52;94529.94;;;4.22;76.41
6680;BME280;3376;42.664;23.346;2023-02-02T03:31:20;94546.69;;;4.26;75.32
6680;BME280;3376;42.664;23.346;2023-02-02T03:33:47;94539.00;;;4.16;75.66
6680;BME280;3376;42.664;23.346;2023-02-02T03:36:15;94539.66;;;4.18;78.28
6680;BME280;3376;42.664;23.346;2023-02-02T03:38:42;94543.69;;;4.30;77.25
6680;BME280;3376;42.664;23.346;2023-02-02T03:41:08;94540.47;;;4.28;77.18
6680;BME280;3376;42.664;23.346;2023-02-02T03:43:35;94536.97;;;4.10;76.94
6680;BME280;3376;42.664;23.346;2023-02-02T03:46:03;94536.59;;;4.15;76.58
6680;BME280;3376;42.664;23.346;2023-02-02T03:48:33;94544.69;;;4.20;76.98
6680;BME280;3376;42.664;23.346;2023-02-02T03:51:04;94540.09;;;4.14;76.40
6680;BME280;3376;42.664;23.346;2023-02-02T03:53:32;94544.78;;;4.18;77.50
6680;BME280;3376;42.664;23.346;2023-02-02T03:55:59;94545.59;;;4.19;76.48
6680;BME280;3376;42.664;23.346;2023-02-02T03:58:26;94538.88;;;4.08;78.08
6680;BME280;3376;42.664;23.346;2023-02-02T04:00:52;94552.91;;;4.14;79.28
6680;BME280;3376;42.664;23.346;2023-02-02T04:03:20;94554.09;;;4.10;80.53
6680;BME280;3376;42.664;23.346;2023-02-02T04:05:48;94527.16;;;3.87;81.08
6680;BME280;3376;42.664;23.346;2023-02-02T04:08:15;94503.28;;;3.77;80.05
6680;BME280;3376;42.664;23.346;2023-02-02T04:10:43;94558.69;;;4.06;82.51
6680;BME280;3376;42.664;23.346;2023-02-02T04:13:10;94558.03;;;4.04;82.26
6680;BME280;3376;42.664;23.346;2023-02-02T04:15:37;94549.41;;;3.96;81.91
6680;BME280;3376;42.664;23.346;2023-02-02T04:18:03;94556.16;;;3.87;82.72
6680;BME280;3376;42.664;23.346;2023-02-02T04:20:30;94562.63;;;3.82;82.73
6680;BME280;3376;42.664;23.346;2023-02-02T04:22:57;94559.66;;;3.77;82.71
6680;BME280;3376;42.664;23.346;2023-02-02T04:25:24;94463.34;;;3.07;83.71
6680;BME280;3376;42.664;23.346;2023-02-02T04:27:52;94552.88;;;3.56;83.93
6680;BME280;3376;42.664;23.346;2023-02-02T04:30:18;94572.56;;;3.56;83.69
6680;BME280;3376;42.664;23.346;2023-02-02T04:32:45;94558.25;;;3.53;83.79
6680;BME280;3376;42.664;23.346;2023-02-02T04:35:12;94560.72;;;3.65;83.99
6680;BME280;3376;42.664;23.346;2023-02-02T04:37:39;94561.09;;;3.60;85.74
6680;BME280;3376;42.664;23.346;2023-02-02T04:40:07;94559.75;;;3.56;84.85
6680;BME280;3376;42.664;23.346;2023-02-02T04:42:33;94562.84;;;3.50;84.54
6680;BME280;3376;42.664;23.346;2023-02-02T04:45:02;94563.78;;;3.49;83.32
6680;BME280;3376;42.664;23.346;2023-02-02T04:47:29;94570.78;;;3.47;84.33
6680;BME280;3376;42.664;23.346;2023-02-02T04:49:55;94572.53;;;3.46;83.81
6680;BME280;3376;42.664;23.346;2023-02-02T04:52:22;94574.94;;;3.38;84.03
6680;BME280;3376;42.664;23.346;2023-02-02T04:54:49;94565.25;;;3.32;84.11
6680;BME280;3376;42.664;23.346;2023-02-02T04:57:15;94542.16;;;3.23;83.06
6680;BME280;3376;42.664;23.346;2023-02-02T04:59:42;94424.84;;;2.50;82.58
6680;BME280;3376;42.664;23.346;2023-02-02T05:02:10;94579.78;;;3.32;82.77
6680;BME280;3376;42.664;23.346;2023-02-02T05:04:37;94584.09;;;3.31;82.54
6680;BME280;3376;42.664;23.346;2023-02-02T05:07:03;94569.25;;;3.25;83.03
6680;BME280;3376;42.664;23.346;2023-02-02T05:09:30;94574.78;;;3.30;82.98
6680;BME280;3376;42.664;23.346;2023-02-02T05:11:57;94574.94;;;3.29;83.02
6680;BME280;3376;42.664;23.346;2023-02-02T05:14:24;94571.28;;;3.31;82.90
6680;BME280;3376;42.664;23.346;2023-02-02T05:16:50;94575.34;;;3.43;82.40
6680;BME280;3376;42.664;23.346;2023-02-02T05:19:19;94576.13;;;3.34;81.97
6680;BME280;3376;42.664;23.346;2023-02-02T05:21:46;94558.47;;;3.31;82.63
6680;BME280;3376;42.664;23.346;2023-02-02T05:24:14;94567.81;;;3.32;82.18
6680;BME280;3376;42.664;23.346;2023-02-02T05:26:41;94554.03;;;3.24;82.18
6680;BME280;3376;42.664;23.346;2023-02-02T05:29:07;94555.50;;;3.26;81.33
6680;BME280;3376;42.664;23.346;2023-02-02T05:31:34;94550.81;;;3.31;81.32
6680;BME280;3376;42.664;23.346;2023-02-02T05:34:01;94567.53;;;3.35;81.40
6680;BME280;3376;42.664;23.346;2023-02-02T05:36:29;94570.09;;;3.35;81.23
6680;BME280;3376;42.664;23.346;2023-02-02T05:38:56;94570.91;;;3.36;81.49
6680;BME280;3376;42.664;23.346;2023-02-02T05:41:22;94567.81;;;3.32;84.87
6680;BME280;3376;42.664;23.346;2023-02-02T05:43:49;94586.44;;;3.14;85.24
6680;BME280;3376;42.664;23.346;2023-02-02T05:46:16;94575.00;;;3.08;86.02
6680;BME280;3376;42.664;23.346;2023-02-02T05:48:42;94583.44;;;2.99;86.20
6680;BME280;3376;42.664;23.346;2023-02-02T05:51:11;94586.13;;;2.98;85.58
6680;BME280;3376;42.664;23.346;2023-02-02T05:53:42;94582.25;;;3.03;80.18
6680;BME280;3376;42.664;23.346;2023-02-02T05:56:10;94575.97;;;3.17;84.08
6680;BME280;3376;42.664;23.346;2023-02-02T05:58:37;94577.84;;;3.24;84.33
6680;BME280;3376;42.664;23.346;2023-02-02T06:01:04;94582.81;;;3.16;85.86
6680;BME280;3376;42.664;23.346;2023-02-02T06:03:30;94578.59;;;3.06;85.15
6680;BME280;3376;42.664;23.346;2023-02-02T06:05:57;94588.75;;;3.17;86.33
6680;BME280;3376;42.664;23.346;2023-02-02T06:08:24;94581.47;;;3.12;85.39
6680;BME280;3376;42.664;23.346;2023-02-02T06:10:52;94588.09;;;3.15;87.83
6680;BME280;3376;42.664;23.346;2023-02-02T06:13:19;94595.63;;;3.16;85.86
6680;BME280;3376;42.664;23.346;2023-02-02T06:15:46;94578.59;;;3.06;86.25
6680;BME280;3376;42.664;23.346;2023-02-02T06:18:13;94584.06;;;3.22;86.87
6680;BME280;3376;42.664;23.346;2023-02-02T06:20:39;94575.72;;;3.29;85.11
6680;BME280;3376;42.664;23.346;2023-02-02T06:23:06;94568.63;;;3.52;85.59
6680;BME280;3376;42.664;23.346;2023-02-02T06:25:34;94592.00;;;3.97;83.10
6680;BME280;3376;42.664;23.346;2023-02-02T06:28:02;94606.31;;;4.28;80.75
6680;BME280;3376;42.664;23.346;2023-02-02T06:30:29;94621.69;;;4.47;79.16
6680;BME280;3376;42.664;23.346;2023-02-02T06:32:58;94626.00;;;4.56;78.12
6680;BME280;3376;42.664;23.346;2023-02-02T06:35:24;94606.97;;;4.39;79.37
6680;BME280;3376;42.664;23.346;2023-02-02T06:37:51;94624.91;;;4.58;78.45
6680;BME280;3376;42.664;23.346;2023-02-02T06:40:18;94609.38;;;4.60;76.38
6680;BME280;3376;42.664;23.346;2023-02-02T06:42:45;94634.91;;;4.61;76.54
6680;BME280;3376;42.664;23.346;2023-02-02T06:45:13;94638.94;;;4.73;76.97
6680;BME280;3376;42.664;23.346;2023-02-02T06:47:39;94622.34;;;4.68;76.15
6680;BME280;3376;42.664;23.346;2023-02-02T06:50:07;94618.97;;;4.67;75.27
6680;BME280;3376;42.664;23.346;2023-02-02T06:52:34;94611.13;;;4.59;76.52
6680;BME280;3376;42.664;23.346;2023-02-02T06:55:00;94634.66;;;4.55;77.42
6680;BME280;3376;42.664;23.346;2023-02-02T06:57:27;94628.28;;;4.49;77.18
6680;BME280;3376;42.664;23.346;2023-02-02T06:59:54;94626.84;;;4.47;77.16
6680;BME280;3376;42.664;23.346;2023-02-02T07:02:22;94643.31;;;4.35;77.98
6680;BME280;3376;42.664;23.346;2023-02-02T07:04:49;94639.38;;;4.12;80.46
6680;BME280;3376;42.664;23.346;2023-02-02T07:07:16;94643.53;;;3.94;80.25
6680;BME280;3376;42.664;23.346;2023-02-02T07:09:43;94644.88;;;3.98;81.04
6680;BME280;3376;42.664;23.346;2023-02-02T07:12:10;94647.25;;;3.71;80.37
6680;BME280;3376;42.664;23.346;2023-02-02T07:14:36;94640.28;;;3.82;81.53
6680;BME280;3376;42.664;23.346;2023-02-02T07:17:03;94633.16;;;3.86;81.63
6680;BME280;3376;42.664;23.346;2023-02-02T07:19:31;94638.78;;;3.89;81.60
6680;BME280;3376;42.664;23.346;2023-02-02T07:21:58;94599.41;;;3.71;87.92
6680;BME280;3376;42.664;23.346;2023-02-02T07:24:24;94644.50;;;4.12;100.00
6680;BME280;3376;42.664;23.346;2023-02-02T07:26:53;94648.16;;;4.19;91.28
6680;BME280;3376;42.664;23.346;2023-02-02T07:29:19;94642.50;;;4.25;97.02
6680;BME280;3376;42.664;23.346;2023-02-02T07:31:46;94635.47;;;4.36;93.58
6680;BME280;3376;42.664;23.346;2023-02-02T07:34:13;94653.00;;;4.41;86.00
6680;BME280;3376;42.664;23.346;2023-02-02T07:36:41;94671.91;;;4.40;84.67
6680;BME280;3376;42.664;23.346;2023-02-02T07:39:07;94673.69;;;4.49;84.44
6680;BME280;3376;42.664;23.346;2023-02-02T07:41:35;94664.06;;;4.51;82.29
6680;BME280;3376;42.664;23.346;2023-02-02T07:44:02;94658.50;;;4.84;82.86
6680;BME280;3376;42.664;23.346;2023-02-02T07:46:30;94655.88;;;5.13;79.96
6680;BME280;3376;42.664;23.346;2023-02-02T07:48:56;94652.72;;;5.28;78.04
6680;BME280;3376;42.664;23.346;2023-02-02T07:51:24;94642.03;;;5.33;77.86
6680;BME280;3376;42.664;23.346;2023-02-02T07:53:53;94650.91;;;5.48;75.20
6680;BME280;3376;42.664;23.346;2023-02-02T07:56:23;94623.59;;;5.74;74.66
6680;BME280;3376;42.664;23.346;2023-02-02T07:58:51;94629.09;;;6.41;71.86
6680;BME280;3376;42.664;23.346;2023-02-02T08:01:18;94628.53;;;7.50;68.26
6680;BME280;3376;42.664;23.346;2023-02-02T08:03:47;94629.81;;;8.61;64.97
6680;BME280;3376;42.664;23.346;2023-02-02T08:06:16;94629.41;;;9.91;58.68
6680;BME280;3376;42.664;23.346;2023-02-02T08:08:43;94620.25;;;11.39;54.79
6680;BME280;3376;42.664;23.346;2023-02-02T08:11:12;94612.19;;;12.63;48.13
6680;BME280;3376;42.664;23.346;2023-02-02T08:13:41;94607.72;;;13.48;45.45
6680;BME280;3376;42.664;23.346;2023-02-02T08:16:08;94607.53;;;14.31;42.82
6680;BME280;3376;42.664;23.346;2023-02-02T08:18:36;94598.22;;;15.02;41.41
6680;BME280;3376;42.664;23.346;2023-02-02T08:21:05;94489.06;;;14.66;39.53
6680;BME280;3376;42.664;23.346;2023-02-02T08:23:33;94595.63;;;15.54;38.45
6680;BME280;3376;42.664;23.346;2023-02-02T08:26:06;94594.00;;;14.81;39.85
6680;BME280;3376;42.664;23.346;2023-02-02T08:28:34;94585.00;;;14.17;40.81
6680;BME280;3376;42.664;23.346;2023-02-02T08:31:06;94583.84;;;13.79;41.69
6680;BME280;3376;42.664;23.346;2023-02-02T08:33:33;94584.09;;;13.90;41.94
6680;BME280;3376;42.664;23.346;2023-02-02T08:36:00;94586.53;;;14.52;41.00
6680;BME280;3376;42.664;23.346;2023-02-02T08:38:27;94572.94;;;15.02;39.43
6680;BME280;3376;42.664;23.346;2023-02-02T08:40:54;94564.50;;;14.74;38.71
6680;BME280;3376;42.664;23.346;2023-02-02T08:43:21;94576.88;;;13.92;41.26
6680;BME280;3376;42.664;23.346;2023-02-02T08:45:50;94565.84;;;13.16;40.58
6680;BME280;3376;42.664;23.346;2023-02-02T08:48:17;94573.81;;;12.65;43.27
6680;BME280;3376;42.664;23.346;2023-02-02T08:50:51;94549.50;;;11.74;45.36
6680;BME280;3376;42.664;23.346;2023-02-02T08:53:18;94565.66;;;11.47;45.46
6680;BME280;3376;42.664;23.346;2023-02-02T08:55:44;94559.41;;;10.98;46.18
6680;BME280;3376;42.664;23.346;2023-02-02T08:58:11;94557.75;;;10.45;47.59
6680;BME280;3376;42.664;23.346;2023-02-02T09:00:38;94567.09;;;10.31;48.23
6680;BME280;3376;42.664;23.346;2023-02-02T09:03:06;94557.97;;;10.35;48.53
6680;BME280;3376;42.664;23.346;2023-02-02T09:05:34;94573.22;;;10.30;47.94
6680;BME280;3376;42.664;23.346;2023-02-02T09:08:03;94549.78;;;10.09;47.71
6680;BME280;3376;42.664;23.346;2023-02-02T09:10:30;94571.41;;;10.16;48.42
6680;BME280;3376;42.664;23.346;2023-02-02T09:13:00;94554.34;;;9.91;50.16
6680;BME280;3376;42.664;23.346;2023-02-02T09:15:27;94557.19;;;9.82;52.56
6680;BME280;3376;42.664;23.346;2023-02-02T09:17:53;94562.34;;;9.51;52.61
6680;BME280;3376;42.664;23.346;2023-02-02T09:20:21;94556.53;;;9.41;53.62
6680;BME280;3376;42.664;23.346;2023-02-02T09:22:48;94551.91;;;9.28;53.58
6680;BME280;3376;42.664;23.346;2023-02-02T09:25:15;94551.50;;;9.01;54.61
6680;BME280;3376;42.664;23.346;2023-02-02T09:27:41;94562.00;;;8.99;55.39
6680;BME280;3376;42.664;23.346;2023-02-02T09:30:09;94500.91;;;8.60;56.50
6680;BME280;3376;42.664;23.346;2023-02-02T09:32:36;94560.41;;;8.74;56.74
6680;BME280;3376;42.664;23.346;2023-02-02T09:35:03;94552.53;;;8.60;57.61
6680;BME280;3376;42.664;23.346;2023-02-02T09:37:32;94547.38;;;8.52;56.96
6680;BME280;3376;42.664;23.346;2023-02-02T09:39:59;94549.63;;;8.39;59.11
6680;BME280;3376;42.664;23.346;2023-02-02T09:42:44;94528.03;;;8.23;59.40
6680;BME280;3376;42.664;23.346;2023-02-02T09:45:21;94534.31;;;8.29;59.32
6680;BME280;3376;42.664;23.346;2023-02-02T09:47:53;94531.25;;;8.33;57.91
6680;BME280;3376;42.664;23.346;2023-02-02T09:50:37;94545.75;;;8.67;57.20
6680;BME280;3376;42.664;23.346;2023-02-02T09:53:14;94540.56;;;8.75;60.88
6680;BME280;3376;42.664;23.346;2023-02-02T09:55:45;94526.06;;;8.74;58.61
6680;BME280;3376;42.664;23.346;2023-02-02T09:58:16;94519.28;;;8.65;58.06
6680;BME280;3376;42.664;23.346;2023-02-02T10:00:47;94511.88;;;9.55;57.10
6680;BME280;3376;42.664;23.346;2023-02-02T10:03:22;94513.00;;;10.36;53.86
6680;BME280;3376;42.664;23.346;2023-02-02T10:05:53;94524.75;;;10.24;53.00
6680;BME280;3376;42.664;23.346;2023-02-02T10:08:27;94527.25;;;9.48;54.93
6680;BME280;3376;42.664;23.346;2023-02-02T10:10:59;94470.34;;;8.79;55.93
6680;BME280;3376;42.664;23.346;2023-02-02T10:13:31;94363.13;;;8.53;55.35
6680;BME280;3376;42.664;23.346;2023-02-02T10:16:05;94472.72;;;9.66;53.66
6680;BME280;3376;42.664;23.346;2023-02-02T10:18:40;94505.06;;;10.15;53.01
6680;BME280;3376;42.664;23.346;2023-02-02T10:21:11;94499.88;;;11.04;51.19
6680;BME280;3376;42.664;23.346;2023-02-02T10:23:42;94491.00;;;11.28;48.46
6680;BME280;3376;42.664;23.346;2023-02-02T10:26:15;94492.53;;;11.37;47.48
6680;BME280;3376;42.664;23.346;2023-02-02T10:28:57;94486.66;;;11.78;47.43
6680;BME280;3376;42.664;23.346;2023-02-02T10:31:40;94477.38;;;12.81;43.40
6680;BME280;3376;42.664;23.346;2023-02-02T10:34:14;94437.53;;;13.49;42.92
6680;BME280;3376;42.664;23.346;2023-02-02T10:36:59;94463.00;;;14.27;40.34
6680;BME280;3376;42.664;23.346;2023-02-02T10:39:39;94468.22;;;14.27;38.00
6680;BME280;3376;42.664;23.346;2023-02-02T10:42:18;94443.72;;;14.15;36.69
6680;BME280;3376;42.664;23.346;2023-02-02T10:44:49;94451.88;;;13.99;37.52
6680;BME280;3376;42.664;23.346;2023-02-02T10:47:23;94441.97;;;13.55;37.74
6680;BME280;3376;42.664;23.346;2023-02-02T10:50:00;94440.88;;;13.97;38.32
6680;BME280;3376;42.664;23.346;2023-02-02T10:52:31;94429.19;;;13.67;37.36
6680;BME280;3376;42.664;23.346;2023-02-02T10:55:04;94420.94;;;13.50;37.42
6680;BME280;3376;42.664;23.346;2023-02-02T10:57:51;94421.44;;;13.26;37.85
6680;BME280;3376;42.664;23.346;2023-02-02T11:00:22;94411.16;;;13.59;37.91
6680;BME280;3376;42.664;23.346;2023-02-02T11:02:51;94404.31;;;13.45;37.28
6680;BME280;3376;42.664;23.346;2023-02-02T11:05:20;94397.41;;;13.18;37.69
6680;BME280;3376;42.664;23.346;2023-02-02T11:08:16;94393.06;;;12.90;38.79
6680;BME280;3376;42.664;23.346;2023-02-02T11:10:46;94403.22;;;12.85;38.46
6680;BME280;3376;42.664;23.346;2023-02-02T11:13:16;94406.63;;;12.92;38.29
6680;BME280;3376;42.664;23.346;2023-02-02T11:15:44;94411.47;;;13.30;37.67
6680;BME280;3376;42.664;23.346;2023-02-02T11:18:12;94391.88;;;13.40;37.86
6680;BME280;3376;42.664;23.346;2023-02-02T11:20:41;94400.28;;;13.42;38.53
6680;BME280;3376;42.664;23.346;2023-02-02T11:23:16;94385.34;;;13.04;37.30
6680;BME280;3376;42.664;23.346;2023-02-02T11:25:45;94393.59;;;12.79;36.85
6680;BME280;3376;42.664;23.346;2023-02-02T11:28:15;94384.44;;;12.90;37.49
6680;BME280;3376;42.664;23.346;2023-02-02T11:30:46;94368.03;;;12.89;36.97
6680;BME280;3376;42.664;23.346;2023-02-02T11:33:20;94365.56;;;13.09;37.65
6680;BME280;3376;42.664;23.346;2023-02-02T11:35:53;94364.09;;;13.00;37.72
6680;BME280;3376;42.664;23.346;2023-02-02T11:38:21;94388.59;;;13.19;37.46
6680;BME280;3376;42.664;23.346;2023-02-02T11:40:54;94371.59;;;13.16;37.71
6680;BME280;3376;42.664;23.346;2023-02-02T11:43:26;94350.19;;;12.73;37.33
6680;BME280;3376;42.664;23.346;2023-02-02T11:45:56;94350.44;;;12.91;37.21
6680;BME280;3376;42.664;23.346;2023-02-02T11:48:27;94342.75;;;12.77;37.18
6680;BME280;3376;42.664;23.346;2023-02-02T11:50:56;94362.84;;;12.89;38.49
6680;BME280;3376;42.664;23.346;2023-02-02T11:53:26;94353.34;;;13.10;36.59
6680;BME280;3376;42.664;23.346;2023-02-02T11:55:56;94342.13;;;12.68;37.37
6680;BME280;3376;42.664;23.346;2023-02-02T11:58:26;94340.53;;;12.67;38.42
6680;BME280;3376;42.664;23.346;2023-02-02T12:00:55;94328.78;;;12.78;38.32
6680;BME280;3376;42.664;23.346;2023-02-02T12:03:25;94317.78;;;12.35;38.88
6680;BME280;3376;42.664;23.346;2023-02-02T12:05:52;94336.25;;;12.53;39.99
6680;BME280;3376;42.664;23.346;2023-02-02T12:08:19;94319.22;;;12.78;39.32
6680;BME280;3376;42.664;23.346;2023-02-02T12:10:52;94317.94;;;13.09;38.24
6680;BME280;3376;42.664;23.346;2023-02-02T12:13:34;94343.13;;;13.02;37.40
6680;BME280;3376;42.664;23.346;2023-02-02T12:16:13;94338.31;;;13.05;37.79
6680;BME280;3376;42.664;23.346;2023-02-02T12:18:52;94343.91;;;12.61;38.21
6680;BME280;3376;42.664;23.346;2023-02-02T12:21:30;94360.22;;;12.49;38.96
6680;BME280;3376;42.664;23.346;2023-02-02T12:24:13;94342.47;;;11.97;40.35
6680;BME280;3376;42.664;23.346;2023-02-02T12:26:44;94341.22;;;11.65;41.38
6680;BME280;3376;42.664;23.346;2023-02-02T12:29:31;94343.53;;;11.39;41.49
6680;BME280;3376;42.664;23.346;2023-02-02T12:32:12;94337.16;;;11.21;42.09
6680;BME280;3376;42.664;23.346;2023-02-02T12:34:52;94331.97;;;10.85;41.89
6680;BME280;3376;42.664;23.346;2023-02-02T12:37:30;94337.81;;;10.43;41.92
6680;BME280;3376;42.664;23.346;2023-02-02T12:40:19;94344.25;;;10.33;40.82
6680;BME280;3376;42.664;23.346;2023-02-02T12:42:56;94333.66;;;10.05;41.39
6680;BME280;3376;42.664;23.346;2023-02-02T12:48:36;94346.91;;;9.73;42.49
6680;BME280;3376;42.664;23.346;2023-02-02T12:51:14;94100.69;;;8.14;43.85
6680;BME280;3376;42.664;23.346;2023-02-02T12:56:46;94346.63;;;9.68;45.12
6680;BME280;3376;42.664;23.346;2023-02-02T12:59:23;94340.81;;;9.66;44.50
6680;BME280;3376;42.664;23.346;2023-02-02T13:02:01;94336.78;;;9.64;45.61
6680;BME280;3376;42.664;23.346;2023-02-02T13:04:50;94343.50;;;9.50;44.36
6680;BME280;3376;42.664;23.346;2023-02-02T13:07:30;94290.22;;;9.26;44.66
6680;BME280;3376;42.664;23.346;2023-02-02T13:10:17;94331.22;;;9.52;45.36
6680;BME280;3376;42.664;23.346;2023-02-02T13:12:50;94339.63;;;9.54;45.13
6680;BME280;3376;42.664;23.346;2023-02-02T13:15:20;94256.22;;;9.15;44.79
6680;BME280;3376;42.664;23.346;2023-02-02T13:17:50;94342.31;;;9.61;43.98
6680;BME280;3376;42.664;23.346;2023-02-02T13:20:29;94341.91;;;9.72;45.12
6680;BME280;3376;42.664;23.346;2023-02-02T13:23:00;94342.81;;;9.79;43.94
6680;BME280;3376;42.664;23.346;2023-02-02T13:25:33;94351.06;;;9.74;44.71
6680;BME280;3376;42.664;23.346;2023-02-02T13:28:02;94339.91;;;9.74;45.12
6680;BME280;3376;42.664;23.346;2023-02-02T13:30:33;94333.88;;;9.81;45.67
6680;BME280;3376;42.664;23.346;2023-02-02T13:33:06;94339.97;;;9.88;44.62
6680;BME280;3376;42.664;23.346;2023-02-02T13:35:41;94340.97;;;9.87;45.27
6680;BME280;3376;42.664;23.346;2023-02-02T13:38:16;94322.50;;;9.90;45.56
6680;BME280;3376;42.664;23.346;2023-02-02T13:40:45;94342.56;;;9.88;44.33
6680;BME280;3376;42.664;23.346;2023-02-02T13:43:30;94333.22;;;10.02;44.35
6680;BME280;3376;42.664;23.346;2023-02-02T13:46:05;94334.44;;;9.91;44.00